Time,TemperatureF,DewpointF,PressureIn,WindDirection,WindDirectionDegrees,WindSpeedMPH,WindSpeedGustMPH,Humidity,HourlyPrecipIn,Conditions,Clouds,dailyrainin,SoftwareType,DateUTC
2013-02-05 00:00:00,20.2,5.7,29.43,North,0,0.0,0.0,53,0.00,,,0.00,WUHU216HW,2013-02-05 05:00:00,
2013-02-05 00:05:00,20.2,5.7,29.43,North,0,0.0,0.0,53,0.00,,,0.00,WUHU216HW,2013-02-05 05:05:00,
2013-02-05 00:30:00,19.6,5.5,29.44,North,0,0.0,0.0,54,0.00,,,0.00,WUHU216HW,2013-02-05 05:30:00,
2013-02-05 00:35:00,19.6,5.5,29.44,North,0,0.0,0.0,54,0.00,,,0.00,WUHU216HW,2013-02-05 05:35:00,
2013-02-05 01:00:00,19.1,5.4,29.45,North,0,0.0,0.0,55,0.00,,,0.00,WUHU216HW,2013-02-05 06:00:00,
2013-02-05 01:05:00,19.1,5.4,29.45,North,0,0.0,0.0,55,0.00,,,0.00,WUHU216HW,2013-02-05 06:05:00,
2013-02-05 01:30:00,18.7,5.5,29.46,North,0,0.0,0.0,56,0.00,,,0.00,WUHU216HW,2013-02-05 06:30:00,
2013-02-05 01:35:00,18.7,5.5,29.46,North,0,0.0,0.0,56,0.00,,,0.00,WUHU216HW,2013-02-05 06:35:00,
2013-02-05 02:00:00,19.8,7.3,29.46,North,0,0.0,0.0,58,0.00,,,0.00,WUHU216HW,2013-02-05 07:00:00,
2013-02-05 02:05:00,19.8,7.3,29.46,North,0,0.0,0.0,58,0.00,,,0.00,WUHU216HW,2013-02-05 07:05:00,
2013-02-05 02:30:00,20.5,7.6,29.46,North,0,0.0,0.0,57,0.00,,,0.00,WUHU216HW,2013-02-05 07:30:00,
2013-02-05 02:35:00,20.5,7.6,29.46,North,0,0.0,0.0,57,0.00,,,0.00,WUHU216HW,2013-02-05 07:35:00,
2013-02-05 03:00:00,20.9,7.9,29.45,North,0,0.0,0.0,57,0.00,,,0.00,WUHU216HW,2013-02-05 08:00:00,
2013-02-05 03:05:00,20.9,7.9,29.45,North,0,0.0,0.0,57,0.00,,,0.00,WUHU216HW,2013-02-05 08:05:00,
2013-02-05 03:30:00,20.5,7.6,29.46,North,0,0.0,0.0,57,0.00,,,0.00,WUHU216HW,2013-02-05 08:30:00,
2013-02-05 03:35:00,20.5,7.6,29.46,North,0,0.0,0.0,57,0.00,,,0.00,WUHU216HW,2013-02-05 08:35:00,
2013-02-05 04:00:00,20.3,7.8,29.46,North,0,0.0,0.0,58,0.00,,,0.00,WUHU216HW,2013-02-05 09:00:00,
2013-02-05 04:05:00,20.3,7.8,29.46,North,0,0.0,0.0,58,0.00,,,0.00,WUHU216HW,2013-02-05 09:05:00,
2013-02-05 04:30:00,20.3,7.8,29.47,North,0,0.0,0.0,58,0.00,,,0.00,WUHU216HW,2013-02-05 09:30:00,
2013-02-05 04:35:00,20.3,7.8,29.47,North,0,0.0,0.0,58,0.00,,,0.00,WUHU216HW,2013-02-05 09:35:00,
2013-02-05 05:00:00,20.5,8.4,29.48,North,0,0.0,0.0,59,0.00,,,0.00,WUHU216HW,2013-02-05 10:00:00,
2013-02-05 05:05:00,20.5,8.4,29.48,North,0,0.0,0.0,59,0.00,,,0.00,WUHU216HW,2013-02-05 10:05:00,
2013-02-05 05:30:00,20.5,8.8,29.48,North,0,0.0,0.0,60,0.00,,,0.00,WUHU216HW,2013-02-05 10:30:00,
2013-02-05 05:35:00,20.5,8.8,29.48,North,0,0.0,0.0,60,0.00,,,0.00,WUHU216HW,2013-02-05 10:35:00,
2013-02-05 06:00:00,20.5,9.2,29.48,North,0,0.0,0.0,61,0.00,,,0.00,WUHU216HW,2013-02-05 11:00:00,
2013-02-05 06:05:00,20.5,9.2,29.48,North,0,0.0,0.0,61,0.00,,,0.00,WUHU216HW,2013-02-05 11:05:00,
2013-02-05 06:30:00,20.3,9.0,29.50,North,0,0.0,0.0,61,0.00,,,0.00,WUHU216HW,2013-02-05 11:30:00,
2013-02-05 06:35:00,20.3,9.0,29.50,North,0,0.0,0.0,61,0.00,,,0.00,WUHU216HW,2013-02-05 11:35:00,
2013-02-05 07:00:00,20.2,9.2,29.50,North,0,0.0,0.0,62,0.00,,,0.00,WUHU216HW,2013-02-05 12:00:00,
2013-02-05 07:05:00,20.2,9.2,29.50,North,0,0.0,0.0,62,0.00,,,0.00,WUHU216HW,2013-02-05 12:05:00,
2013-02-05 07:30:00,20.5,9.8,29.51,North,0,0.0,0.0,63,0.00,,,0.00,WUHU216HW,2013-02-05 12:30:00,
2013-02-05 07:35:00,20.5,9.8,29.51,North,0,0.0,0.0,63,0.00,,,0.00,WUHU216HW,2013-02-05 12:35:00,
2013-02-05 08:00:00,20.9,10.5,29.53,North,0,0.0,0.0,64,0.00,,,0.00,WUHU216HW,2013-02-05 13:00:00,
2013-02-05 08:05:00,20.9,10.5,29.53,North,0,0.0,0.0,64,0.00,,,0.00,WUHU216HW,2013-02-05 13:05:00,
2013-02-05 08:30:00,22.5,11.3,29.54,North,0,0.0,0.0,62,0.00,,,0.00,WUHU216HW,2013-02-05 13:30:00,
2013-02-05 08:35:00,22.5,11.3,29.54,North,0,0.0,0.0,62,0.00,,,0.00,WUHU216HW,2013-02-05 13:35:00,
2013-02-05 09:00:00,24.1,12.2,29.53,North,0,0.0,0.0,60,0.00,,,0.00,WUHU216HW,2013-02-05 14:00:00,
2013-02-05 09:05:00,24.1,12.2,29.53,North,0,0.0,0.0,60,0.00,,,0.00,WUHU216HW,2013-02-05 14:05:00,
2013-02-05 09:30:00,24.7,11.2,29.53,North,0,0.0,0.0,56,0.00,,,0.00,WUHU216HW,2013-02-05 14:30:00,
2013-02-05 09:35:00,24.7,11.2,29.53,North,0,0.0,0.0,56,0.00,,,0.00,WUHU216HW,2013-02-05 14:35:00,
2013-02-05 10:00:00,25.9,11.1,29.53,North,0,0.0,0.0,53,0.00,,,0.00,WUHU216HW,2013-02-05 15:00:00,
2013-02-05 10:05:00,25.9,11.1,29.53,North,0,0.0,0.0,53,0.00,,,0.00,WUHU216HW,2013-02-05 15:05:00,
2013-02-05 10:30:00,27.7,11.5,29.54,North,0,0.0,0.0,50,0.00,,,0.00,WUHU216HW,2013-02-05 15:30:00,
2013-02-05 10:35:00,27.7,11.5,29.54,North,0,0.0,0.0,50,0.00,,,0.00,WUHU216HW,2013-02-05 15:35:00,
2013-02-05 11:00:00,27.7,11.5,29.53,North,0,0.0,0.0,50,0.00,,,0.00,WUHU216HW,2013-02-05 16:00:00,
2013-02-05 11:05:00,27.7,11.5,29.53,North,0,0.0,0.0,50,0.00,,,0.00,WUHU216HW,2013-02-05 16:05:00,
2013-02-05 11:30:00,28.8,12.1,29.53,North,0,0.0,0.0,49,0.00,,,0.00,WUHU216HW,2013-02-05 16:30:00,
2013-02-05 11:35:00,28.8,12.1,29.53,North,0,0.0,0.0,49,0.00,,,0.00,WUHU216HW,2013-02-05 16:35:00,
2013-02-05 12:00:00,29.9,12.1,29.51,North,0,0.0,0.0,47,0.00,,,0.00,WUHU216HW,2013-02-05 17:00:00,
2013-02-05 12:05:00,29.9,12.1,29.51,North,0,0.0,0.0,47,0.00,,,0.00,WUHU216HW,2013-02-05 17:05:00,
2013-02-05 12:30:00,30.6,12.7,29.50,North,0,0.0,0.0,47,0.00,,,0.00,WUHU216HW,2013-02-05 17:30:00,
2013-02-05 12:35:00,30.6,12.7,29.50,North,0,0.0,0.0,47,0.00,,,0.00,WUHU216HW,2013-02-05 17:35:00,
2013-02-05 13:00:00,31.0,12.5,29.50,North,0,0.0,0.0,46,0.00,,,0.00,WUHU216HW,2013-02-05 18:00:00,
2013-02-05 13:05:00,31.0,12.5,29.50,North,0,0.0,0.0,46,0.00,,,0.00,WUHU216HW,2013-02-05 18:05:00,
2013-02-05 13:30:00,30.8,11.4,29.48,North,0,0.0,0.0,44,0.00,,,0.00,WUHU216HW,2013-02-05 18:30:00,
2013-02-05 13:34:00,30.8,11.4,29.48,North,0,0.0,0.0,44,0.00,,,0.00,WUHU216HW,2013-02-05 18:34:00,
2013-02-05 14:00:00,31.7,13.7,29.48,North,0,0.0,0.0,47,0.00,,,0.00,WUHU216HW,2013-02-05 19:00:00,
2013-02-05 14:05:00,31.7,13.7,29.48,North,0,0.0,0.0,47,0.00,,,0.00,WUHU216HW,2013-02-05 19:05:00,
2013-02-05 14:30:00,32.8,14.1,29.49,North,0,0.0,0.0,46,0.00,,,0.00,WUHU216HW,2013-02-05 19:30:00,
2013-02-05 14:35:00,32.8,14.1,29.49,North,0,0.0,0.0,46,0.00,,,0.00,WUHU216HW,2013-02-05 19:35:00,
2013-02-05 15:00:00,33.5,14.2,29.48,North,0,0.0,0.0,45,0.00,,,0.00,WUHU216HW,2013-02-05 20:00:00,
2013-02-05 15:05:00,33.5,14.2,29.48,North,0,0.0,0.0,45,0.00,,,0.00,WUHU216HW,2013-02-05 20:05:00,
2013-02-05 15:30:00,30.8,11.4,29.48,North,0,0.0,0.0,44,0.00,,,0.00,WUHU216HW,2013-02-05 20:30:00,
2013-02-05 15:35:00,30.8,11.4,29.48,North,0,0.0,0.0,44,0.00,,,0.00,WUHU216HW,2013-02-05 20:35:00,
2013-02-05 16:00:00,30.6,13.1,29.46,North,0,0.0,0.0,48,0.00,,,0.00,WUHU216HW,2013-02-05 21:00:00,
2013-02-05 16:05:00,30.6,13.1,29.46,North,0,0.0,0.0,48,0.00,,,0.00,WUHU216HW,2013-02-05 21:05:00,
2013-02-05 16:30:00,28.8,12.6,29.46,North,0,0.0,0.0,50,0.00,,,0.00,WUHU216HW,2013-02-05 21:30:00,
2013-02-05 16:34:00,28.8,12.6,29.46,North,0,0.0,0.0,50,0.00,,,0.00,WUHU216HW,2013-02-05 21:34:00,
2013-02-05 17:00:00,27.4,11.6,29.47,North,0,0.0,0.0,51,0.00,,,0.00,WUHU216HW,2013-02-05 22:00:00,
2013-02-05 17:05:00,27.4,11.6,29.47,North,0,0.0,0.0,51,0.00,,,0.00,WUHU216HW,2013-02-05 22:05:00,
2013-02-05 17:30:00,26.8,11.9,29.47,North,0,0.0,0.0,53,0.00,,,0.00,WUHU216HW,2013-02-05 22:30:00,
2013-02-05 17:35:00,26.8,11.9,29.47,North,0,0.0,0.0,53,0.00,,,0.00,WUHU216HW,2013-02-05 22:35:00,
2013-02-05 18:00:00,26.3,12.2,29.47,North,0,0.0,0.0,55,0.00,,,0.00,WUHU216HW,2013-02-05 23:00:00,
2013-02-05 18:05:00,26.3,12.2,29.47,North,0,0.0,0.0,55,0.00,,,0.00,WUHU216HW,2013-02-05 23:05:00,
2013-02-05 18:30:00,25.6,12.0,29.48,North,0,0.0,0.0,56,0.00,,,0.00,WUHU216HW,2013-02-05 23:30:00,
2013-02-05 18:35:00,25.6,12.0,29.48,North,0,0.0,0.0,56,0.00,,,0.00,WUHU216HW,2013-02-05 23:35:00,
2013-02-05 19:00:00,25.4,12.6,29.47,North,0,0.0,0.0,58,0.00,,,0.00,WUHU216HW,2013-02-06 00:00:00,
2013-02-05 19:05:00,25.4,12.6,29.47,North,0,0.0,0.0,58,0.00,,,0.00,WUHU216HW,2013-02-06 00:05:00,
2013-02-05 19:30:00,25.4,13.1,29.48,North,0,0.0,0.0,59,0.00,,,0.00,WUHU216HW,2013-02-06 00:30:00,
2013-02-05 19:35:00,25.4,13.1,29.48,North,0,0.0,0.0,59,0.00,,,0.00,WUHU216HW,2013-02-06 00:35:00,
2013-02-05 19:40:00,25.4,13.1,29.48,North,0,0.0,0.0,59,0.00,,,0.00,WUHU216HW,2013-02-06 00:40:00,
2013-02-05 20:00:00,25.6,13.2,29.47,North,0,0.0,0.0,59,0.00,,,0.00,WUHU216HW,2013-02-06 01:00:00,
2013-02-05 20:05:00,25.6,13.2,29.47,North,0,0.0,0.0,59,0.00,,,0.00,WUHU216HW,2013-02-06 01:05:00,
2013-02-05 20:30:00,25.6,13.6,29.47,North,0,0.0,0.0,60,0.00,,,0.00,WUHU216HW,2013-02-06 01:30:00,
2013-02-05 20:35:00,25.6,13.6,29.47,North,0,0.0,0.0,60,0.00,,,0.00,WUHU216HW,2013-02-06 01:35:00,
2013-02-05 21:00:00,25.2,13.6,29.48,North,0,0.0,0.0,61,0.00,,,0.00,WUHU216HW,2013-02-06 02:00:00,
2013-02-05 21:05:00,25.2,13.6,29.48,North,0,0.0,0.0,61,0.00,,,0.00,WUHU216HW,2013-02-06 02:05:00,
2013-02-05 21:30:00,25.4,14.5,29.48,North,0,0.0,0.0,63,0.00,,,0.00,WUHU216HW,2013-02-06 02:30:00,
2013-02-05 21:35:00,25.4,14.5,29.48,North,0,0.0,0.0,63,0.00,,,0.00,WUHU216HW,2013-02-06 02:35:00,
2013-02-05 22:00:00,25.2,15.4,29.48,North,0,0.0,0.0,66,0.00,,,0.00,WUHU216HW,2013-02-06 03:00:00,
2013-02-05 22:05:00,25.2,15.4,29.48,North,0,0.0,0.0,66,0.00,,,0.00,WUHU216HW,2013-02-06 03:05:00,
2013-02-05 22:30:00,24.8,16.0,29.47,North,0,0.0,0.0,69,0.00,,,0.00,WUHU216HW,2013-02-06 03:30:00,
2013-02-05 22:35:00,24.8,16.0,29.47,North,0,0.0,0.0,69,0.00,,,0.00,WUHU216HW,2013-02-06 03:35:00,
2013-02-05 23:00:00,25.0,16.9,29.46,North,0,0.0,0.0,71,0.00,,,0.00,WUHU216HW,2013-02-06 04:00:00,
2013-02-05 23:05:00,25.0,16.9,29.46,North,0,0.0,0.0,71,0.00,,,0.00,WUHU216HW,2013-02-06 04:05:00,
2013-02-05 23:30:00,25.0,17.2,29.45,North,0,0.0,0.0,72,0.00,,,0.00,WUHU216HW,2013-02-06 04:30:00,
2013-02-05 23:35:00,25.0,17.2,29.45,North,0,0.0,0.0,72,0.00,,,0.00,WUHU216HW,2013-02-06 04:35:00,